Time;durP1;ratioP1;P1;durP2;ratioP2;P2;SDS_P1;SDS_P2;PMS_P1;PMS_P2;Temp;Humidity;BMP_temperature;BMP_pressure;BME280_temperature;BME280_humidity;BME280_pressure;Samples;Min_cycle;Max_cycle;Signal;HPM_P1;HPM_P2
2023/08/29 00:01:18;;;;;;;7.83;1.17;;;13.60;99.90;;;;;;4997164;28;20412;-84
2023/08/29 00:03:45;;;;;;;3.97;1.10;;;13.60;99.90;;;;;;5002663;28;20215;-85
2023/08/29 00:06:11;;;;;;;3.27;1.10;;;13.60;99.90;;;;;;5022993;28;20202;-86
2023/08/29 00:08:37;;;;;;;1.20;1.10;;;13.60;99.90;;;;;;5008578;28;20305;-82
2023/08/29 00:11:02;;;;;;;0.93;0.93;;;13.60;99.90;;;;;;5009316;28;20734;-85
2023/08/29 00:13:29;;;;;;;1.80;1.30;;;13.60;99.90;;;;;;4998915;28;20498;-85
2023/08/29 00:15:55;;;;;;;1.23;1.00;;;13.60;99.90;;;;;;5051072;28;20218;-85
2023/08/29 00:18:22;;;;;;;1.10;0.67;;;13.50;99.90;;;;;;4990029;28;20187;-84
2023/08/29 00:20:48;;;;;;;5.13;2.83;;;13.50;99.90;;;;;;5041658;28;20233;-85
2023/08/29 00:23:14;;;;;;;1.83;1.13;;;13.50;99.90;;;;;;5023500;28;20351;-85
2023/08/29 00:25:40;;;;;;;1.90;1.10;;;13.50;99.90;;;;;;5021747;28;20234;-84
2023/08/29 00:28:07;;;;;;;1.47;0.90;;;13.50;99.90;;;;;;5020926;28;20234;-82
2023/08/29 00:30:37;;;;;;;1.00;0.80;;;13.40;99.90;;;;;;5008829;28;20223;-85
2023/08/29 00:33:04;;;;;;;1.43;0.97;;;13.20;99.90;;;;;;5042248;28;20202;-85
2023/08/29 00:35:30;;;;;;;2.40;0.87;;;12.90;99.90;;;;;;5021999;28;20868;-85
2023/08/29 00:37:56;;;;;;;1.43;1.33;;;12.80;99.90;;;;;;5052263;28;21067;-86
2023/08/29 00:40:25;;;;;;;1.77;1.00;;;12.70;99.90;;;;;;5013271;28;20234;-83
2023/08/29 00:42:50;;;;;;;1.20;1.00;;;12.50;99.90;;;;;;5027107;28;20671;-84
2023/08/29 00:45:16;;;;;;;1.07;0.97;;;12.40;99.90;;;;;;5006132;28;20200;-84
2023/08/29 00:47:42;;;;;;;3.70;1.20;;;12.40;99.90;;;;;;5005099;28;20254;-82
2023/08/29 00:50:08;;;;;;;0.60;0.60;;;12.40;99.90;;;;;;5018204;28;20254;-85
2023/08/29 00:52:34;;;;;;;0.77;0.70;;;12.50;99.90;;;;;;5028982;28;20215;-82
2023/08/29 00:55:02;;;;;;;2.03;0.87;;;12.50;99.90;;;;;;4995867;28;20213;-83
2023/08/29 00:57:28;;;;;;;1.73;1.03;;;12.60;99.90;;;;;;5004791;28;20233;-85
2023/08/29 00:59:54;;;;;;;1.20;0.70;;;12.70;99.90;;;;;;5022401;28;20206;-85
2023/08/29 01:02:19;;;;;;;0.73;0.73;;;12.70;99.90;;;;;;5039781;28;20690;-84
2023/08/29 01:04:45;;;;;;;4.40;1.50;;;12.70;99.90;;;;;;5009902;28;20230;-85
2023/08/29 01:07:12;;;;;;;0.43;0.43;;;12.70;99.90;;;;;;5011614;28;20233;-86
2023/08/29 01:09:38;;;;;;;1.33;0.83;;;12.70;99.90;;;;;;5002930;28;20222;-83
2023/08/29 01:12:11;;;;;;;2.20;2.00;;;12.70;99.90;;;;;;5020148;28;20182;-85
2023/08/29 01:14:42;;;;;;;1.40;0.70;;;12.70;99.90;;;;;;5041442;28;20205;-85
2023/08/29 01:17:22;;;;;;;3.80;1.80;;;12.60;99.90;;;;;;5023280;28;20237;-85
2023/08/29 01:19:52;;;;;;;0.83;0.83;;;12.70;99.90;;;;;;5056071;28;20229;-82
2023/08/29 01:22:51;;;;;;;1.00;0.83;;;12.70;99.90;;;;;;5023034;28;20214;-85
2023/08/29 01:25:51;;;;;;;1.37;1.23;;;12.70;99.90;;;;;;4986956;28;20222;-83
2023/08/29 01:28:19;;;;;;;1.50;0.90;;;12.60;99.90;;;;;;5041423;28;20214;-85
2023/08/29 01:30:46;;;;;;;1.03;0.90;;;12.40;99.90;;;;;;5041155;28;20217;-85
2023/08/29 01:33:12;;;;;;;1.60;0.60;;;12.30;99.90;;;;;;5024301;28;20197;-84
2023/08/29 01:35:46;;;;;;;5.13;0.90;;;12.20;99.90;;;;;;5024547;28;20293;-86
2023/08/29 01:38:12;;;;;;;1.13;0.73;;;12.20;99.90;;;;;;5021552;28;20211;-85
2023/08/29 01:40:39;;;;;;;1.47;0.70;;;12.30;99.90;;;;;;5035522;28;20222;-86
2023/08/29 01:43:05;;;;;;;2.30;1.00;;;12.30;99.90;;;;;;5028092;28;21021;-85
2023/08/29 01:45:30;;;;;;;0.83;0.70;;;12.30;99.90;;;;;;5037065;28;20227;-84
2023/08/29 01:47:56;;;;;;;2.50;1.37;;;12.30;99.90;;;;;;5003599;28;20226;-83
2023/08/29 01:50:23;;;;;;;1.27;0.80;;;12.30;99.90;;;;;;5054181;28;20242;-85
2023/08/29 01:52:49;;;;;;;1.13;0.90;;;12.40;99.90;;;;;;5008373;28;20238;-85
2023/08/29 01:55:15;;;;;;;2.23;1.20;;;12.50;99.90;;;;;;5013203;28;20305;-83
2023/08/29 01:57:43;;;;;;;1.73;1.10;;;12.60;99.90;;;;;;5019080;28;20845;-82
2023/08/29 02:00:09;;;;;;;1.67;1.07;;;12.80;99.90;;;;;;5020084;28;20671;-84
2023/08/29 02:02:35;;;;;;;14.17;1.53;;;12.80;99.90;;;;;;5004105;28;20210;-83
2023/08/29 02:05:01;;;;;;;1.70;1.43;;;12.80;99.90;;;;;;4970035;28;20241;-84
2023/08/29 02:07:26;;;;;;;3.33;1.67;;;12.90;99.90;;;;;;5035166;28;20276;-85
2023/08/29 02:09:52;;;;;;;2.30;1.13;;;12.90;99.90;;;;;;5009611;28;20442;-85
2023/08/29 02:12:18;;;;;;;1.93;1.83;;;12.90;99.90;;;;;;5020735;28;20185;-83
2023/08/29 02:14:43;;;;;;;1.20;0.90;;;12.90;99.90;;;;;;5019762;28;20183;-84
2023/08/29 02:17:09;;;;;;;1.67;1.20;;;12.90;99.90;;;;;;5019567;28;20887;-86
2023/08/29 02:19:35;;;;;;;1.53;1.43;;;12.80;99.90;;;;;;5028318;28;21380;-85
2023/08/29 02:22:01;;;;;;;1.20;1.10;;;12.80;99.90;;;;;;5027319;28;20222;-83
2023/08/29 02:24:27;;;;;;;1.60;1.23;;;12.80;99.90;;;;;;5036501;28;20215;-87
2023/08/29 02:26:53;;;;;;;2.13;1.93;;;12.80;99.90;;;;;;5017974;28;20698;-85
2023/08/29 02:29:19;;;;;;;1.33;1.23;;;12.80;99.90;;;;;;5021153;28;20210;-82
2023/08/29 02:31:45;;;;;;;1.03;0.93;;;12.90;99.90;;;;;;5026395;28;20222;-84
2023/08/29 02:34:11;;;;;;;2.03;1.20;;;13.00;99.90;;;;;;4995014;28;20218;-84
2023/08/29 02:36:36;;;;;;;4.87;1.40;;;13.10;99.90;;;;;;5018815;28;20327;-85
2023/08/29 02:39:02;;;;;;;2.67;1.53;;;13.20;99.90;;;;;;5019923;28;20209;-85
2023/08/29 02:41:28;;;;;;;1.43;1.23;;;13.20;99.90;;;;;;5039331;28;20621;-86
2023/08/29 02:43:54;;;;;;;6.93;1.63;;;13.20;99.90;;;;;;5008022;28;20226;-85
2023/08/29 02:46:21;;;;;;;2.83;1.43;;;13.10;99.90;;;;;;5029280;28;20222;-82
2023/08/29 02:48:46;;;;;;;2.47;1.50;;;13.10;99.90;;;;;;5017655;28;20214;-84
2023/08/29 02:51:12;;;;;;;1.50;1.40;;;13.10;99.90;;;;;;5003671;28;21257;-85
2023/08/29 02:53:38;;;;;;;2.03;1.40;;;13.00;99.90;;;;;;5005467;28;20210;-82
2023/08/29 02:56:03;;;;;;;1.93;1.47;;;13.00;99.90;;;;;;5006420;28;20214;-85
2023/08/29 02:58:29;;;;;;;2.00;1.43;;;13.00;99.90;;;;;;4980168;28;20605;-82
2023/08/29 03:00:56;;;;;;;2.33;1.50;;;12.90;99.90;;;;;;5032188;28;20262;-84
2023/08/29 03:03:26;;;;;;;2.47;1.07;;;12.90;99.90;;;;;;5004360;28;20204;-85
2023/08/29 03:05:59;;;;;;;3.87;1.50;;;13.00;99.90;;;;;;5002126;28;20241;-84
2023/08/29 03:08:25;;;;;;;0.83;0.60;;;13.00;99.90;;;;;;4982861;28;20218;-85
2023/08/29 03:10:52;;;;;;;4.13;0.97;;;13.10;99.90;;;;;;5031280;28;20227;-83
2023/08/29 03:13:18;;;;;;;1.07;0.80;;;13.00;99.90;;;;;;4998749;28;20207;-83
2023/08/29 03:15:47;;;;;;;9.57;1.23;;;13.00;99.90;;;;;;4999168;28;20211;-85
2023/08/29 03:18:14;;;;;;;1.57;1.47;;;13.10;99.90;;;;;;4998092;28;20186;-84
2023/08/29 03:20:44;;;;;;;0.90;0.80;;;13.10;99.90;;;;;;4998802;28;20714;-83
2023/08/29 03:23:10;;;;;;;1.10;1.00;;;12.90;99.90;;;;;;4982335;28;20539;-83
2023/08/29 03:25:36;;;;;;;2.33;1.13;;;12.20;99.90;;;;;;5031281;28;20661;-82
2023/08/29 03:28:02;;;;;;;1.23;1.13;;;11.80;99.90;;;;;;4998229;28;20845;-84
2023/08/29 03:30:28;;;;;;;1.67;1.03;;;11.50;99.90;;;;;;5031720;28;20223;-85
2023/08/29 03:32:54;;;;;;;2.60;1.77;;;11.60;99.90;;;;;;5015367;28;20230;-82
2023/08/29 03:35:20;;;;;;;2.47;1.43;;;11.80;99.90;;;;;;4982658;28;20317;-85
2023/08/29 03:37:46;;;;;;;1.63;1.50;;;12.00;99.90;;;;;;5031089;28;20236;-84
2023/08/29 03:40:12;;;;;;;6.80;2.00;;;12.10;99.90;;;;;;5030467;28;20277;-85
2023/08/29 03:42:41;;;;;;;1.30;1.20;;;12.10;99.90;;;;;;4998447;28;20227;-84
2023/08/29 03:45:08;;;;;;;2.47;1.47;;;12.20;99.90;;;;;;4997913;28;20306;-86
2023/08/29 03:47:36;;;;;;;1.83;1.37;;;12.20;99.90;;;;;;5031718;28;20203;-85
2023/08/29 03:50:02;;;;;;;3.57;1.90;;;12.20;99.90;;;;;;4998769;28;20223;-83
2023/08/29 03:52:28;;;;;;;1.83;1.17;;;12.20;99.90;;;;;;4981742;28;20318;-85
2023/08/29 03:54:55;;;;;;;2.47;1.87;;;12.10;99.90;;;;;;4998825;28;20216;-82
2023/08/29 03:57:22;;;;;;;1.33;0.97;;;12.10;99.90;;;;;;4998894;28;20215;-85
2023/08/29 03:59:48;;;;;;;2.33;1.27;;;12.10;99.90;;;;;;4998787;28;20215;-86
2023/08/29 04:02:14;;;;;;;2.53;1.27;;;12.10;99.90;;;;;;4998665;28;20230;-85
2023/08/29 04:04:43;;;;;;;2.37;1.57;;;12.10;99.90;;;;;;5015197;28;20321;-84
2023/08/29 04:07:10;;;;;;;2.07;0.97;;;12.10;99.90;;;;;;4973740;28;20227;-82
2023/08/29 04:09:36;;;;;;;4.93;1.53;;;12.10;99.90;;;;;;4982346;28;20226;-84
2023/08/29 04:12:02;;;;;;;1.40;1.30;;;12.10;99.90;;;;;;5000085;28;20200;-83
2023/08/29 04:14:28;;;;;;;1.83;1.47;;;12.10;99.90;;;;;;4979153;28;20226;-86
2023/08/29 04:16:55;;;;;;;2.97;1.30;;;12.10;99.90;;;;;;4992068;28;20698;-82
2023/08/29 04:19:21;;;;;;;1.50;1.40;;;12.20;99.90;;;;;;4990596;28;20208;-83
2023/08/29 04:21:48;;;;;;;1.77;1.53;;;12.20;99.90;;;;;;4988376;28;20225;-85
2023/08/29 04:24:13;;;;;;;1.57;1.47;;;12.20;99.90;;;;;;5000795;28;20297;-82
2023/08/29 04:26:39;;;;;;;2.50;1.40;;;12.20;99.90;;;;;;4966647;28;20645;-85
2023/08/29 04:29:05;;;;;;;2.43;1.67;;;12.20;99.90;;;;;;4998088;28;20262;-85
2023/08/29 04:31:31;;;;;;;1.70;1.40;;;12.20;99.90;;;;;;4992338;28;21058;-84
2023/08/29 04:33:56;;;;;;;2.23;1.37;;;12.20;99.90;;;;;;4989463;28;20677;-85
2023/08/29 04:36:25;;;;;;;1.40;1.30;;;12.20;99.90;;;;;;5016606;28;20187;-87
2023/08/29 04:38:51;;;;;;;2.57;1.60;;;12.20;99.90;;;;;;4998778;28;20455;-81
2023/08/29 04:41:17;;;;;;;2.37;1.50;;;12.20;99.90;;;;;;5000542;28;20700;-85
2023/08/29 04:43:42;;;;;;;2.93;1.83;;;12.20;99.90;;;;;;5001383;28;20230;-82
2023/08/29 04:46:08;;;;;;;3.30;2.10;;;12.20;99.90;;;;;;4993807;28;20215;-85
2023/08/29 04:48:34;;;;;;;3.57;2.13;;;12.20;99.90;;;;;;4985331;28;20211;-85
2023/08/29 04:51:01;;;;;;;1.53;1.43;;;12.20;99.90;;;;;;4985442;28;20230;-83
2023/08/29 04:53:27;;;;;;;2.93;1.40;;;12.20;99.90;;;;;;5014410;28;20303;-85
2023/08/29 04:56:03;;;;;;;4.57;2.03;;;12.30;99.90;;;;;;4996504;28;20233;-85
2023/08/29 04:58:32;;;;;;;2.77;1.87;;;12.40;99.90;;;;;;4964341;28;20532;-82
2023/08/29 05:00:58;;;;;;;3.70;2.33;;;12.50;99.90;;;;;;4989566;28;20275;-81
2023/08/29 05:03:24;;;;;;;4.83;1.93;;;12.50;99.90;;;;;;4999071;28;20257;-85
2023/08/29 05:05:52;;;;;;;2.80;2.03;;;12.60;99.90;;;;;;5014849;28;20223;-83
2023/08/29 05:08:18;;;;;;;2.27;1.43;;;12.70;99.90;;;;;;4981792;28;20216;-84
2023/08/29 05:10:43;;;;;;;3.17;1.73;;;12.80;99.90;;;;;;4964790;28;20231;-86
2023/08/29 05:13:10;;;;;;;4.33;2.20;;;12.90;99.90;;;;;;4973136;28;20334;-85
2023/08/29 05:15:35;;;;;;;1.67;1.30;;;13.00;99.90;;;;;;5001472;28;20223;-85
2023/08/29 05:18:02;;;;;;;3.43;2.40;;;13.20;99.90;;;;;;5001046;28;20206;-87
2023/08/29 05:20:28;;;;;;;2.23;2.03;;;13.40;99.90;;;;;;5000194;28;20235;-85
2023/08/29 05:22:53;;;;;;;4.63;3.00;;;13.60;99.90;;;;;;5001677;28;20274;-84
2023/08/29 05:25:19;;;;;;;2.57;1.87;;;13.80;99.90;;;;;;5001529;28;20306;-86
2023/08/29 05:27:45;;;;;;;4.70;2.80;;;13.70;99.90;;;;;;5001955;28;20219;-85
2023/08/29 05:30:11;;;;;;;2.10;1.43;;;13.90;99.90;;;;;;5000126;28;20277;-87
2023/08/29 05:32:39;;;;;;;4.10;2.67;;;13.80;99.90;;;;;;5003217;28;20361;-85
2023/08/29 05:35:07;;;;;;;5.53;2.30;;;13.90;99.90;;;;;;5014956;28;20233;-83
2023/08/29 05:37:33;;;;;;;2.47;1.80;;;14.00;99.90;;;;;;4984926;28;20250;-85
2023/08/29 05:39:58;;;;;;;2.80;2.00;;;14.30;99.90;;;;;;4984128;28;20740;-87
2023/08/29 05:42:25;;;;;;;2.70;2.03;;;14.50;99.90;;;;;;5001205;28;20188;-85
2023/08/29 05:44:51;;;;;;;2.50;1.70;;;14.70;99.90;;;;;;4985141;28;20597;-86
2023/08/29 05:47:16;;;;;;;1.97;1.67;;;15.00;99.90;;;;;;5001019;28;20218;-86
2023/08/29 05:49:42;;;;;;;2.00;1.80;;;15.30;99.90;;;;;;5000971;28;20345;-85
2023/08/29 05:52:08;;;;;;;2.10;1.87;;;15.50;99.90;;;;;;4983861;28;20318;-86
2023/08/29 05:54:36;;;;;;;1.90;1.80;;;15.80;99.90;;;;;;4983752;28;20808;-85
2023/08/29 05:57:03;;;;;;;1.27;0.83;;;16.00;99.90;;;;;;5001339;28;20543;-85
2023/08/29 05:59:29;;;;;;;1.77;1.50;;;16.20;99.90;;;;;;5000539;28;20314;-85
2023/08/29 06:01:55;;;;;;;1.20;1.07;;;16.40;99.90;;;;;;5001487;28;20215;-84
2023/08/29 06:04:20;;;;;;;2.13;1.60;;;16.70;99.90;;;;;;5012427;28;20295;-86
2023/08/29 06:06:49;;;;;;;6.90;1.60;;;17.80;99.90;;;;;;5001354;28;20259;-86
2023/08/29 06:09:14;;;;;;;2.83;1.50;;;19.60;99.90;;;;;;5022571;28;20194;-82
2023/08/29 06:11:40;;;;;;;1.33;1.23;;;21.10;99.90;;;;;;5041294;28;20284;-82
2023/08/29 06:14:06;;;;;;;2.90;1.30;;;21.20;99.90;;;;;;5039526;28;20233;-83
2023/08/29 06:16:32;;;;;;;1.13;1.03;;;20.40;99.90;;;;;;5005902;28;20574;-84
2023/08/29 06:18:58;;;;;;;0.90;0.90;;;19.50;99.90;;;;;;5022821;28;20244;-84
2023/08/29 06:21:24;;;;;;;1.30;1.00;;;18.40;99.90;;;;;;5022393;28;20271;-82
2023/08/29 06:23:49;;;;;;;1.17;1.00;;;17.80;99.90;;;;;;5023928;28;20190;-86
2023/08/29 06:26:18;;;;;;;1.33;1.20;;;17.40;99.90;;;;;;5040080;28;20697;-83
2023/08/29 06:28:44;;;;;;;1.10;1.00;;;17.20;99.90;;;;;;5006172;28;20291;-85
2023/08/29 06:31:10;;;;;;;2.73;1.33;;;17.00;99.90;;;;;;5005575;28;20214;-85
2023/08/29 06:33:37;;;;;;;2.37;1.00;;;16.80;99.90;;;;;;5022881;28;20745;-85
2023/08/29 06:36:02;;;;;;;2.77;1.33;;;16.70;99.90;;;;;;5022102;28;20595;-83
2023/08/29 06:38:30;;;;;;;2.23;1.53;;;16.60;99.90;;;;;;5006506;28;20233;-84
2023/08/29 06:40:56;;;;;;;1.00;0.83;;;16.60;99.90;;;;;;5038546;28;20233;-86
2023/08/29 06:43:23;;;;;;;1.97;1.20;;;16.60;99.90;;;;;;5038369;28;20216;-82
2023/08/29 06:45:49;;;;;;;1.00;0.90;;;16.60;99.90;;;;;;5007611;28;20253;-85
2023/08/29 06:48:14;;;;;;;3.07;1.20;;;16.60;99.90;;;;;;5038943;28;20308;-85
2023/08/29 06:50:40;;;;;;;1.90;1.47;;;16.60;99.90;;;;;;5023062;28;20204;-83
2023/08/29 06:53:06;;;;;;;0.97;0.80;;;16.70;99.90;;;;;;5005350;28;20279;-86
2023/08/29 06:55:34;;;;;;;1.20;1.00;;;16.90;99.90;;;;;;5022041;28;20217;-85
2023/08/29 06:58:00;;;;;;;1.00;0.90;;;16.90;99.90;;;;;;5039025;28;20214;-82
2023/08/29 07:00:28;;;;;;;1.43;1.33;;;17.00;99.90;;;;;;5005351;28;20245;-86
2023/08/29 07:02:53;;;;;;;1.57;1.27;;;16.90;99.90;;;;;;5023064;28;20205;-85
2023/08/29 07:05:20;;;;;;;2.00;1.27;;;17.00;99.90;;;;;;5053886;28;20229;-82
2023/08/29 07:07:46;;;;;;;1.30;1.00;;;17.10;99.90;;;;;;5021862;28;20574;-86
2023/08/29 07:10:12;;;;;;;1.40;1.00;;;17.20;99.90;;;;;;4996305;28;20219;-86
2023/08/29 07:12:37;;;;;;;4.57;1.63;;;17.30;99.90;;;;;;5006285;28;20582;-83
2023/08/29 07:15:03;;;;;;;1.47;1.10;;;17.40;99.90;;;;;;5022173;28;20190;-83
2023/08/29 07:17:29;;;;;;;2.00;1.20;;;17.50;99.90;;;;;;5002427;28;20222;-84
2023/08/29 07:19:55;;;;;;;1.40;1.03;;;17.50;99.90;;;;;;5034817;28;20283;-87
2023/08/29 07:22:21;;;;;;;3.43;1.67;;;17.60;99.90;;;;;;5011106;28;20223;-86
2023/08/29 07:24:46;;;;;;;1.63;1.27;;;17.60;99.90;;;;;;5008517;28;20241;-84
2023/08/29 07:27:12;;;;;;;1.73;1.27;;;17.80;99.90;;;;;;5003941;28;20183;-84
2023/08/29 07:29:38;;;;;;;1.90;1.50;;;17.90;99.90;;;;;;4986210;28;20233;-83
2023/08/29 07:32:04;;;;;;;2.20;1.40;;;18.00;99.90;;;;;;5035156;28;20241;-86
2023/08/29 07:34:30;;;;;;;1.53;1.43;;;18.00;99.90;;;;;;5027734;28;21028;-87
2023/08/29 07:36:56;;;;;;;2.00;1.53;;;18.00;99.90;;;;;;5008649;28;20217;-85
2023/08/29 07:39:24;;;;;;;1.87;1.40;;;18.10;99.90;;;;;;5003181;28;20229;-84
2023/08/29 07:41:50;;;;;;;1.93;1.50;;;18.10;99.90;;;;;;5019853;28;20245;-86
2023/08/29 07:44:16;;;;;;;2.03;1.80;;;18.30;99.90;;;;;;4989880;28;20225;-84
2023/08/29 07:46:42;;;;;;;2.67;1.13;;;18.30;99.90;;;;;;4992811;28;20218;-85
2023/08/29 07:49:13;;;;;;;1.80;1.70;;;18.30;99.90;;;;;;5027994;28;20217;-84
2023/08/29 07:51:42;;;;;;;1.80;1.37;;;18.40;99.90;;;;;;5017852;28;20253;-86
2023/08/29 07:54:07;;;;;;;1.10;1.00;;;18.70;99.90;;;;;;5005371;28;20210;-82
2023/08/29 07:56:33;;;;;;;1.57;1.40;;;19.00;99.90;;;;;;5043715;28;20526;-84
2023/08/29 07:58:59;;;;;;;3.80;1.23;;;19.60;99.90;;;;;;4993456;28;20241;-85
2023/08/29 08:01:25;;;;;;;3.97;1.50;;;20.40;99.90;;;;;;5032801;28;20264;-87
2023/08/29 08:03:50;;;;;;;1.80;1.37;;;21.90;99.90;;;;;;5019874;28;20222;-85
2023/08/29 08:06:16;;;;;;;1.60;1.30;;;22.90;99.90;;;;;;5023228;28;21133;-84
2023/08/29 08:08:42;;;;;;;2.13;1.43;;;23.20;99.90;;;;;;5026641;28;20714;-87
2023/08/29 08:11:08;;;;;;;1.00;1.00;;;23.70;99.90;;;;;;5008812;28;20222;-86
2023/08/29 08:13:34;;;;;;;1.53;1.33;;;24.10;99.90;;;;;;4992192;28;20218;-87
2023/08/29 08:16:00;;;;;;;2.23;1.80;;;24.60;99.90;;;;;;5035076;28;20278;-86
2023/08/29 08:18:26;;;;;;;1.50;1.23;;;24.70;99.90;;;;;;5040672;28;20194;-83
2023/08/29 08:20:52;;;;;;;1.45;1.33;;;25.60;99.90;;;;;;5026225;28;20308;-85
2023/08/29 08:23:17;;;;;;;3.20;1.23;;;26.90;99.90;;;;;;5007682;28;20246;-84
2023/08/29 08:25:44;;;;;;;1.35;1.23;;;27.80;99.90;;;;;;5016754;28;20714;-86
2023/08/29 08:28:13;;;;;;;2.28;1.00;;;28.10;99.90;;;;;;5000067;28;20544;-84
2023/08/29 08:30:39;;;;;;;2.40;1.30;;;26.00;99.90;;;;;;4994413;28;20244;-85
2023/08/29 08:33:06;;;;;;;2.28;1.02;;;25.70;99.90;;;;;;5008928;28;20600;-84
2023/08/29 08:35:32;;;;;;;1.45;1.10;;;24.80;99.90;;;;;;5004229;28;20206;-87
2023/08/29 08:37:58;;;;;;;1.20;1.00;;;24.40;99.90;;;;;;4986423;28;20252;-86
2023/08/29 08:40:23;;;;;;;1.52;1.30;;;24.40;99.90;;;;;;5014862;28;21054;-85
2023/08/29 08:42:49;;;;;;;3.80;1.50;;;24.70;99.90;;;;;;5011397;28;20213;-87
2023/08/29 08:45:16;;;;;;;2.05;1.52;;;24.00;99.90;;;;;;5005675;28;20232;-87
2023/08/29 08:47:43;;;;;;;2.05;1.85;;;24.00;99.90;;;;;;5022302;28;20195;-84
2023/08/29 08:50:09;;;;;;;1.98;1.50;;;23.20;99.90;;;;;;5038965;28;20927;-87
2023/08/29 08:52:36;;;;;;;1.90;1.73;;;22.40;99.90;;;;;;5029693;28;20226;-86
2023/08/29 08:55:02;;;;;;;1.70;1.60;;;22.20;99.90;;;;;;4995545;28;20214;-84
2023/08/29 08:57:28;;;;;;;1.48;1.35;;;22.20;99.90;;;;;;5004242;28;20229;-87
2023/08/29 08:59:54;;;;;;;1.50;1.25;;;22.20;99.90;;;;;;5038012;28;20218;-87
2023/08/29 09:02:20;;;;;;;1.80;1.70;;;21.90;99.90;;;;;;5020974;28;20206;-85
2023/08/29 09:04:46;;;;;;;1.60;1.50;;;21.70;99.90;;;;;;5010407;28;20238;-85
2023/08/29 09:07:12;;;;;;;2.17;2.00;;;21.80;99.90;;;;;;5029102;28;20224;-83
2023/08/29 09:09:38;;;;;;;1.50;1.40;;;21.80;99.90;;;;;;5020657;28;20219;-87
2023/08/29 09:12:04;;;;;;;1.38;1.27;;;21.50;99.90;;;;;;4988511;28;20676;-87
2023/08/29 09:14:32;;;;;;;2.43;1.67;;;20.80;99.90;;;;;;5007374;28;20225;-83
2023/08/29 09:17:00;;;;;;;1.38;1.17;;;20.40;99.90;;;;;;5026063;28;20260;-87
2023/08/29 09:19:29;;;;;;;1.43;1.03;;;20.40;99.90;;;;;;5015379;28;20226;-87
2023/08/29 09:21:55;;;;;;;1.67;1.40;;;20.30;99.90;;;;;;5031818;28;20222;-86
2023/08/29 09:24:36;;;;;;;1.30;1.20;;;20.70;99.90;;;;;;5015505;28;20579;-83
2023/08/29 09:27:07;;;;;;;2.00;1.67;;;20.90;99.90;;;;;;5004526;28;20592;-84
2023/08/29 09:29:33;;;;;;;2.50;1.37;;;21.20;99.90;;;;;;5022936;28;20989;-83
2023/08/29 09:31:59;;;;;;;1.60;1.47;;;21.50;99.90;;;;;;5024248;28;20224;-83
2023/08/29 09:34:30;;;;;;;1.90;1.70;;;21.70;99.90;;;;;;5024023;28;20233;-84
2023/08/29 09:37:02;;;;;;;3.70;2.07;;;22.00;99.90;;;;;;5006530;28;20225;-84
2023/08/29 09:39:28;;;;;;;2.10;1.80;;;21.90;99.90;;;;;;5056211;28;20229;-86
2023/08/29 09:42:05;;;;;;;3.13;1.80;;;22.00;99.90;;;;;;5007604;28;20232;-85
2023/08/29 09:44:39;;;;;;;1.40;1.30;;;21.50;99.90;;;;;;5040314;28;20268;-86
2023/08/29 09:47:05;;;;;;;1.83;1.50;;;20.90;99.90;;;;;;5022408;28;20221;-87
2023/08/29 09:49:46;;;;;;;1.67;1.40;;;20.70;99.90;;;;;;5024058;28;20236;-85
2023/08/29 09:52:16;;;;;;;1.73;1.63;;;20.60;99.90;;;;;;5040492;28;20285;-86
2023/08/29 09:54:50;;;;;;;1.13;1.03;;;20.70;99.90;;;;;;5023179;28;20233;-86
2023/08/29 09:57:19;;;;;;;0.80;0.80;;;21.00;99.90;;;;;;5023728;28;20186;-84
2023/08/29 09:59:46;;;;;;;3.03;0.70;;;21.50;99.90;;;;;;5023022;28;20222;-86
2023/08/29 10:02:13;;;;;;;1.47;1.07;;;21.60;99.90;;;;;;5039988;28;20226;-86
2023/08/29 10:04:48;;;;;;;1.00;0.90;;;21.90;99.90;;;;;;5006585;28;20238;-86
2023/08/29 10:07:18;;;;;;;2.30;0.70;;;22.60;99.90;;;;;;5023115;28;20253;-87
2023/08/29 10:09:44;;;;;;;1.33;1.10;;;22.60;99.90;;;;;;5023274;28;20288;-87
2023/08/29 10:12:10;;;;;;;1.15;1.02;;;23.10;99.90;;;;;;5006264;28;20199;-86
2023/08/29 10:14:37;;;;;;;1.40;1.30;;;23.60;99.90;;;;;;5006586;28;20217;-87
2023/08/29 10:17:04;;;;;;;1.35;1.13;;;23.80;99.90;;;;;;5021094;28;20244;-85
2023/08/29 10:19:32;;;;;;;1.33;1.23;;;23.30;99.90;;;;;;5021623;28;20506;-83
2023/08/29 10:21:59;;;;;;;1.88;1.67;;;22.90;99.90;;;;;;5006158;28;20218;-87
2023/08/29 10:24:26;;;;;;;1.00;0.90;;;22.60;99.90;;;;;;5022312;28;20198;-86
2023/08/29 10:26:52;;;;;;;0.90;0.90;;;23.00;99.90;;;;;;5022998;28;20769;-84
2023/08/29 10:29:18;;;;;;;1.60;1.17;;;23.80;99.90;;;;;;5040010;28;20213;-85
2023/08/29 10:31:45;;;;;;;0.88;0.88;;;23.90;99.90;;;;;;5022558;28;20218;-87
2023/08/29 10:34:13;;;;;;;1.33;0.88;;;24.70;99.90;;;;;;5039711;28;20217;-87
2023/08/29 10:36:40;;;;;;;1.40;1.00;;;25.60;99.90;;;;;;5005976;28;20214;-86
2023/08/29 10:39:09;;;;;;;1.92;1.20;;;26.80;99.90;;;;;;5023548;28;20268;-85
2023/08/29 10:41:46;;;;;;;1.17;1.02;;;27.20;99.90;;;;;;5022922;28;20271;-85
2023/08/29 10:44:36;;;;;;;1.15;1.00;;;26.30;99.90;;;;;;5039793;28;20218;-83
2023/08/29 10:47:21;;;;;;;1.17;1.08;;;25.90;99.90;;;;;;5039456;28;20218;-86
2023/08/29 10:49:59;;;;;;;1.13;1.02;;;26.40;99.90;;;;;;5039099;28;20570;-85
2023/08/29 10:52:40;;;;;;;1.23;1.00;;;26.90;99.90;;;;;;5021754;28;20226;-86
2023/08/29 10:55:22;;;;;;;1.30;1.10;;;27.60;99.90;;;;;;5005849;28;20218;-85
2023/08/29 10:57:49;;;;;;;2.72;1.33;;;26.60;99.90;;;;;;5040128;28;20209;-84
2023/08/29 11:00:35;;;;;;;2.67;1.20;;;26.30;99.90;;;;;;5021637;28;20206;-86
2023/08/29 11:03:01;;;;;;;1.23;0.90;;;25.20;99.90;;;;;;5022305;28;20659;-85
2023/08/29 11:05:27;;;;;;;0.90;0.90;;;24.60;99.90;;;;;;5039292;28;20329;-84
2023/08/29 11:08:13;;;;;;;1.83;1.13;;;24.50;99.90;;;;;;5004451;28;20218;-83
2023/08/29 11:10:39;;;;;;;1.42;1.10;;;24.70;99.90;;;;;;5020923;28;20785;-87
2023/08/29 11:13:10;;;;;;;1.33;1.15;;;25.00;99.90;;;;;;5004601;28;20216;-86
2023/08/29 11:15:51;;;;;;;1.50;1.15;;;25.50;99.90;;;;;;5021806;28;20213;-82
2023/08/29 11:18:34;;;;;;;2.20;1.20;;;26.00;99.90;;;;;;5038886;28;20276;-86
2023/08/29 11:21:04;;;;;;;3.28;1.40;;;26.30;99.90;;;;;;5022728;28;20225;-86
2023/08/29 11:23:34;;;;;;;1.48;1.33;;;25.80;99.90;;;;;;5039172;28;20244;-87
2023/08/29 11:26:00;;;;;;;2.03;1.13;;;25.60;99.90;;;;;;5021597;28;20575;-84
2023/08/29 11:28:26;;;;;;;1.10;1.00;;;25.30;99.90;;;;;;5023632;28;20214;-86
2023/08/29 11:30:52;;;;;;;1.52;1.00;;;24.60;99.90;;;;;;5009174;28;20668;-85
2023/08/29 11:33:19;;;;;;;1.48;1.35;;;24.20;99.90;;;;;;5043073;28;20185;-86
2023/08/29 11:35:45;;;;;;;1.50;1.38;;;24.50;99.90;;;;;;5025817;28;20194;-86
2023/08/29 11:38:11;;;;;;;2.42;1.25;;;24.00;99.90;;;;;;5043447;28;20281;-86
2023/08/29 11:40:37;;;;;;;3.60;1.50;;;23.80;99.90;;;;;;5025519;28;20630;-85
2023/08/29 11:43:04;;;;;;;1.77;1.23;;;24.00;99.90;;;;;;5008216;28;20513;-86
2023/08/29 11:45:39;;;;;;;1.50;1.40;;;24.10;99.90;;;;;;5009863;28;20220;-84
2023/08/29 11:48:05;;;;;;;1.35;1.25;;;24.20;99.90;;;;;;5009680;28;20319;-84
2023/08/29 11:50:31;;;;;;;1.55;1.20;;;24.50;99.90;;;;;;5022848;28;20763;-83
2023/08/29 11:52:57;;;;;;;1.48;1.30;;;23.50;99.90;;;;;;5038772;28;20335;-88
2023/08/29 11:55:25;;;;;;;1.42;1.33;;;23.10;99.90;;;;;;5032047;28;20329;-83
2023/08/29 11:57:52;;;;;;;1.73;1.48;;;23.20;99.90;;;;;;5028328;28;20219;-84
2023/08/29 12:00:19;;;;;;;1.92;1.73;;;23.60;99.90;;;;;;5041794;28;20202;-86
2023/08/29 12:02:45;;;;;;;1.95;1.75;;;23.80;99.90;;;;;;4990486;28;20202;-84
2023/08/29 12:05:12;;;;;;;2.10;1.85;;;24.10;99.90;;;;;;5038559;28;20257;-86
2023/08/29 12:07:38;;;;;;;2.33;2.13;;;24.50;99.90;;;;;;5013048;28;20264;-84
2023/08/29 12:10:14;;;;;;;2.90;2.13;;;24.80;99.90;;;;;;5029694;28;20337;-84
2023/08/29 12:12:40;;;;;;;2.22;2.00;;;25.10;99.90;;;;;;5052642;28;20359;-83
2023/08/29 12:15:17;;;;;;;2.55;1.80;;;25.60;99.90;;;;;;4990123;28;20174;-85
2023/08/29 12:17:47;;;;;;;3.38;1.80;;;25.50;99.90;;;;;;5042397;28;20241;-86
2023/08/29 12:20:13;;;;;;;2.03;1.50;;;25.80;99.90;;;;;;5024886;28;20256;-87
2023/08/29 12:22:42;;;;;;;2.08;1.88;;;26.10;99.90;;;;;;5025331;28;20234;-86
2023/08/29 12:25:09;;;;;;;2.20;2.00;;;26.40;99.90;;;;;;5042035;28;20224;-85
2023/08/29 12:27:35;;;;;;;4.20;1.75;;;25.90;99.90;;;;;;5042072;28;20692;-85
2023/08/29 12:30:01;;;;;;;1.70;1.60;;;25.70;99.90;;;;;;5025821;28;20296;-86
2023/08/29 12:32:28;;;;;;;2.40;1.50;;;25.20;99.90;;;;;;5007291;28;20221;-84
2023/08/29 12:34:57;;;;;;;1.30;1.20;;;25.10;99.90;;;;;;5024326;28;20210;-84
2023/08/29 12:37:23;;;;;;;1.77;1.52;;;24.80;99.90;;;;;;5042056;28;20206;-88
2023/08/29 12:39:49;;;;;;;1.95;1.67;;;24.00;99.90;;;;;;5023534;28;20230;-87
2023/08/29 12:42:16;;;;;;;1.60;1.25;;;23.70;99.90;;;;;;5042407;28;20300;-83
2023/08/29 12:44:42;;;;;;;1.60;1.50;;;23.40;99.90;;;;;;5042632;28;20201;-87
2023/08/29 12:47:08;;;;;;;2.15;1.58;;;23.50;99.90;;;;;;5024863;28;20214;-86
2023/08/29 12:49:35;;;;;;;1.52;1.35;;;23.80;99.90;;;;;;5024801;28;20217;-85